Time;durP1;ratioP1;P1;durP2;ratioP2;P2;SDS_P1;SDS_P2;PMS_P1;PMS_P2;Temp;Humidity;BMP_temperature;BMP_pressure;BME280_temperature;BME280_humidity;BME280_pressure;Samples;Min_cycle;Max_cycle;Signal;HPM_P1;HPM_P2
2024/03/26 00:01:40;;;;;;;5.07;1.95;;;9.20;99.90;;;;;;5001319;28;20058;-70
2024/03/26 00:04:06;;;;;;;6.25;2.60;;;9.20;99.90;;;;;;4988486;28;20061;-69
2024/03/26 00:06:32;;;;;;;6.60;3.00;;;9.20;99.90;;;;;;5000878;28;20501;-69
2024/03/26 00:08:58;;;;;;;8.80;2.42;;;9.10;99.90;;;;;;5003135;28;20052;-71
2024/03/26 00:11:24;;;;;;;6.28;2.67;;;9.10;99.90;;;;;;5022975;28;20053;-72
2024/03/26 00:13:50;;;;;;;5.03;2.35;;;9.10;99.90;;;;;;5007560;28;20107;-70
2024/03/26 00:16:16;;;;;;;7.15;2.67;;;9.10;99.90;;;;;;4986752;28;20050;-68
2024/03/26 00:18:42;;;;;;;9.07;3.75;;;9.10;99.90;;;;;;5000281;28;20050;-69
2024/03/26 00:21:08;;;;;;;9.45;2.53;;;9.10;99.90;;;;;;5006819;28;20061;-68
2024/03/26 00:23:33;;;;;;;8.30;2.88;;;9.00;99.90;;;;;;5026875;28;20489;-68
2024/03/26 00:25:59;;;;;;;9.60;3.03;;;9.00;99.90;;;;;;5010984;28;20410;-68
2024/03/26 00:28:25;;;;;;;9.18;3.38;;;9.00;99.90;;;;;;5006731;28;20057;-69
2024/03/26 00:30:51;;;;;;;7.93;2.55;;;8.90;99.90;;;;;;5008088;28;20062;-68
2024/03/26 00:33:17;;;;;;;8.57;2.58;;;9.00;99.90;;;;;;4993009;28;20050;-69
2024/03/26 00:35:42;;;;;;;5.28;2.97;;;9.00;99.90;;;;;;5009351;28;21090;-68
2024/03/26 00:38:08;;;;;;;10.55;2.70;;;9.00;99.90;;;;;;5007122;28;20050;-68
2024/03/26 00:40:34;;;;;;;8.23;3.13;;;8.90;99.90;;;;;;5008402;28;20057;-67
2024/03/26 00:43:00;;;;;;;8.45;2.70;;;9.00;99.90;;;;;;5010384;28;20520;-68
2024/03/26 00:45:26;;;;;;;5.65;2.33;;;9.00;99.90;;;;;;5019374;28;20489;-70
2024/03/26 00:47:52;;;;;;;10.82;3.05;;;8.90;99.90;;;;;;5005383;28;20065;-68
2024/03/26 00:50:18;;;;;;;10.20;2.70;;;9.00;99.90;;;;;;5008811;28;20053;-68
2024/03/26 00:52:44;;;;;;;8.23;3.08;;;9.00;99.90;;;;;;5006905;28;20054;-68
2024/03/26 00:55:10;;;;;;;10.27;2.47;;;9.00;99.90;;;;;;5012780;28;20095;-68
2024/03/26 00:57:35;;;;;;;7.10;2.50;;;9.00;99.90;;;;;;5007871;28;20058;-69
2024/03/26 01:00:02;;;;;;;11.13;3.30;;;9.00;99.90;;;;;;4992897;28;20081;-68
2024/03/26 01:02:31;;;;;;;6.53;2.33;;;9.00;99.90;;;;;;5005458;28;20548;-67
2024/03/26 01:04:57;;;;;;;6.85;2.35;;;9.00;99.90;;;;;;5006744;28;20054;-68
2024/03/26 01:07:22;;;;;;;5.30;2.63;;;9.00;99.90;;;;;;4999051;28;20108;-68
2024/03/26 01:09:48;;;;;;;8.63;2.60;;;9.00;99.90;;;;;;5005411;28;20468;-68
2024/03/26 01:12:14;;;;;;;6.93;2.78;;;9.00;99.90;;;;;;5005836;28;20108;-68
2024/03/26 01:14:40;;;;;;;11.43;2.40;;;9.00;99.90;;;;;;5006232;28;20297;-68
2024/03/26 01:17:06;;;;;;;9.93;2.60;;;9.00;99.90;;;;;;5007166;28;20511;-67
2024/03/26 01:19:32;;;;;;;11.95;2.67;;;9.00;99.90;;;;;;5005568;28;20124;-70
2024/03/26 01:21:57;;;;;;;9.13;2.75;;;9.00;99.90;;;;;;5004292;28;20057;-69
2024/03/26 01:24:23;;;;;;;9.18;2.75;;;9.00;99.90;;;;;;5004043;28;20054;-70
2024/03/26 01:26:49;;;;;;;5.63;2.53;;;9.00;99.90;;;;;;4999720;28;20127;-69
2024/03/26 01:29:15;;;;;;;5.93;2.42;;;9.00;99.90;;;;;;5003420;28;20061;-69
2024/03/26 01:31:41;;;;;;;6.07;2.10;;;9.00;99.90;;;;;;4990198;28;20053;-69
2024/03/26 01:34:07;;;;;;;4.95;2.42;;;9.10;99.90;;;;;;5005713;28;20088;-69
2024/03/26 01:36:33;;;;;;;5.10;2.10;;;9.00;99.90;;;;;;5005816;28;20049;-69
2024/03/26 01:38:58;;;;;;;6.20;2.28;;;9.10;99.90;;;;;;5004218;28;20493;-69
2024/03/26 01:41:24;;;;;;;4.97;2.15;;;9.00;99.90;;;;;;5001675;28;20144;-69
2024/03/26 01:43:50;;;;;;;11.13;2.20;;;9.00;99.90;;;;;;5003358;28;20053;-69
2024/03/26 01:46:16;;;;;;;7.32;2.65;;;9.10;99.90;;;;;;5005114;28;20049;-69
2024/03/26 01:48:42;;;;;;;6.07;2.83;;;9.00;99.90;;;;;;5003727;28;20492;-68
2024/03/26 01:51:07;;;;;;;4.60;2.33;;;9.00;99.90;;;;;;5005849;28;20042;-69
2024/03/26 01:53:34;;;;;;;6.93;2.42;;;9.10;99.90;;;;;;4987956;28;20645;-69
2024/03/26 01:56:00;;;;;;;6.40;2.45;;;9.00;99.90;;;;;;5004855;28;20050;-71
2024/03/26 01:58:26;;;;;;;7.60;2.67;;;9.00;99.90;;;;;;5003720;28;20073;-68
2024/03/26 02:00:52;;;;;;;4.78;2.10;;;9.10;99.90;;;;;;5002705;28;20587;-69
2024/03/26 02:03:18;;;;;;;5.88;2.08;;;9.10;99.90;;;;;;5005434;28;20046;-68
2024/03/26 02:05:44;;;;;;;5.57;2.50;;;9.00;99.90;;;;;;5005829;28;20060;-69
2024/03/26 02:08:10;;;;;;;6.05;2.55;;;9.00;99.90;;;;;;4996639;28;20513;-68
2024/03/26 02:10:36;;;;;;;8.38;2.85;;;9.00;99.90;;;;;;5008622;28;20319;-69
2024/03/26 02:13:02;;;;;;;5.95;2.55;;;9.00;99.90;;;;;;4993134;28;20050;-70
2024/03/26 02:15:28;;;;;;;8.57;2.80;;;9.00;99.90;;;;;;5025376;28;20229;-69
2024/03/26 02:17:53;;;;;;;5.95;2.22;;;9.00;99.90;;;;;;5005760;28;20045;-68
2024/03/26 02:20:20;;;;;;;9.50;3.13;;;9.10;99.90;;;;;;5009262;28;20120;-68
2024/03/26 02:22:46;;;;;;;5.90;2.20;;;9.10;99.90;;;;;;5009299;28;20038;-69
2024/03/26 02:25:12;;;;;;;7.13;3.70;;;9.10;99.90;;;;;;5010730;28;20068;-69
2024/03/26 02:27:38;;;;;;;6.57;2.63;;;9.00;99.90;;;;;;5005653;28;20049;-68
2024/03/26 02:30:04;;;;;;;18.35;4.75;;;9.20;99.90;;;;;;5027921;28;20050;-69
2024/03/26 02:32:30;;;;;;;6.88;2.42;;;9.20;99.90;;;;;;5002170;28;20049;-68
2024/03/26 02:34:56;;;;;;;4.85;2.22;;;9.20;99.90;;;;;;5019315;28;20432;-69
2024/03/26 02:37:22;;;;;;;10.32;3.22;;;9.20;99.90;;;;;;5011215;28;20061;-68
2024/03/26 02:39:48;;;;;;;10.68;3.15;;;9.20;99.90;;;;;;5008188;28;20056;-69
2024/03/26 02:42:13;;;;;;;8.25;2.67;;;9.30;99.90;;;;;;5009549;28;20058;-68
2024/03/26 02:44:39;;;;;;;11.68;2.38;;;9.30;99.90;;;;;;5024772;28;20080;-68
2024/03/26 02:47:05;;;;;;;4.18;2.40;;;9.30;99.90;;;;;;5007574;28;20402;-68
2024/03/26 02:49:31;;;;;;;9.93;3.17;;;9.30;99.90;;;;;;5009387;28;20089;-69
2024/03/26 02:51:57;;;;;;;7.45;2.67;;;9.30;99.90;;;;;;5007531;28;20269;-67
2024/03/26 02:54:22;;;;;;;10.55;3.17;;;9.30;99.90;;;;;;5031963;28;20057;-67
2024/03/26 02:56:48;;;;;;;8.88;2.38;;;9.30;99.90;;;;;;5005668;28;20104;-68
2024/03/26 02:59:14;;;;;;;8.45;2.95;;;9.20;99.90;;;;;;5020302;28;20897;-69
2024/03/26 03:01:41;;;;;;;7.60;2.35;;;9.30;99.90;;;;;;5008186;28;20045;-68
2024/03/26 03:04:07;;;;;;;6.45;3.10;;;9.30;99.90;;;;;;5007399;28;20058;-68
2024/03/26 03:06:33;;;;;;;8.40;2.78;;;9.30;99.90;;;;;;5006981;28;20042;-69
2024/03/26 03:08:58;;;;;;;5.70;2.42;;;9.30;99.90;;;;;;5007076;28;20068;-68
2024/03/26 03:11:24;;;;;;;5.65;2.75;;;9.30;99.90;;;;;;4990321;28;20141;-68
2024/03/26 03:13:50;;;;;;;8.90;2.85;;;9.30;99.90;;;;;;5007357;28;20120;-68
2024/03/26 03:16:16;;;;;;;6.13;2.70;;;9.30;99.90;;;;;;5007610;28;20140;-68
2024/03/26 03:18:42;;;;;;;7.85;2.47;;;9.30;99.90;;;;;;5008218;28;20429;-68
2024/03/26 03:21:08;;;;;;;9.35;3.45;;;9.30;99.90;;;;;;5003823;28;20568;-68
2024/03/26 03:23:34;;;;;;;8.65;2.70;;;9.20;99.90;;;;;;5006658;28;20058;-71
2024/03/26 03:25:59;;;;;;;10.32;2.65;;;9.30;99.90;;;;;;5007503;28;20042;-68
2024/03/26 03:28:25;;;;;;;7.85;2.45;;;9.30;99.90;;;;;;5006956;28;20062;-68
2024/03/26 03:30:51;;;;;;;13.63;3.08;;;9.30;99.90;;;;;;5025161;28;20050;-68
2024/03/26 03:33:17;;;;;;;10.60;2.47;;;9.30;99.90;;;;;;5007931;28;20108;-68
2024/03/26 03:35:49;;;;;;;8.93;2.70;;;9.30;99.90;;;;;;5009297;28;20468;-67
2024/03/26 03:38:16;;;;;;;8.00;3.22;;;9.30;99.90;;;;;;5006842;28;20054;-66
2024/03/26 03:40:41;;;;;;;8.43;2.85;;;9.30;99.90;;;;;;5007727;28;20156;-67
2024/03/26 03:43:07;;;;;;;5.95;2.38;;;9.30;99.90;;;;;;5008169;28;20589;-68
2024/03/26 03:45:33;;;;;;;15.52;3.35;;;9.30;99.90;;;;;;5006474;28;20056;-68
2024/03/26 03:47:59;;;;;;;8.45;2.90;;;9.30;99.90;;;;;;5004368;28;20060;-67
2024/03/26 03:50:25;;;;;;;10.77;3.03;;;9.30;99.90;;;;;;5008070;28;20116;-67
2024/03/26 03:52:50;;;;;;;13.57;3.30;;;9.30;99.90;;;;;;5003972;28;20050;-68
2024/03/26 03:55:16;;;;;;;7.60;2.72;;;9.30;99.90;;;;;;5009529;28;20053;-68
2024/03/26 03:57:43;;;;;;;10.07;3.97;;;9.30;99.90;;;;;;5006702;28;20085;-69
2024/03/26 04:00:09;;;;;;;10.40;3.05;;;9.30;99.90;;;;;;5003508;28;20049;-68
2024/03/26 04:02:35;;;;;;;9.90;3.30;;;9.30;99.90;;;;;;5008165;28;20050;-67
2024/03/26 04:05:02;;;;;;;9.65;3.05;;;9.30;99.90;;;;;;5007028;28;20515;-68
2024/03/26 04:07:28;;;;;;;8.88;2.90;;;9.30;99.90;;;;;;4988145;28;20063;-68
2024/03/26 04:09:54;;;;;;;9.07;3.13;;;9.30;99.90;;;;;;5005446;28;20108;-67
2024/03/26 04:12:19;;;;;;;9.93;3.35;;;9.30;99.90;;;;;;5006210;28;20460;-67
2024/03/26 04:14:46;;;;;;;9.50;3.45;;;9.30;99.90;;;;;;5009703;28;20100;-67
2024/03/26 04:17:11;;;;;;;14.02;3.75;;;9.30;99.90;;;;;;5010732;28;20064;-67
2024/03/26 04:19:37;;;;;;;8.57;3.58;;;9.30;99.90;;;;;;5007127;28;20409;-67
2024/03/26 04:22:03;;;;;;;7.85;3.03;;;9.30;99.90;;;;;;5001109;28;20198;-68
2024/03/26 04:24:29;;;;;;;7.47;3.17;;;9.20;99.90;;;;;;5023147;28;20061;-67
2024/03/26 04:26:55;;;;;;;6.55;3.22;;;9.30;99.90;;;;;;5009894;28;20042;-67
2024/03/26 04:29:20;;;;;;;10.93;4.03;;;9.30;99.90;;;;;;5003283;28;20054;-67
2024/03/26 04:31:48;;;;;;;6.68;2.92;;;9.30;99.90;;;;;;4993404;28;20727;-69
2024/03/26 04:34:13;;;;;;;10.90;3.25;;;9.30;99.90;;;;;;5023719;28;20046;-68
2024/03/26 04:36:39;;;;;;;11.90;3.63;;;9.40;99.90;;;;;;5013085;28;20137;-69
2024/03/26 04:39:08;;;;;;;5.95;3.10;;;9.30;99.90;;;;;;4993121;28;21338;-68
2024/03/26 04:41:35;;;;;;;7.90;3.22;;;9.30;99.90;;;;;;5009516;28;20386;-69
2024/03/26 04:44:01;;;;;;;13.52;3.35;;;9.30;99.90;;;;;;4996729;28;20049;-68
2024/03/26 04:46:26;;;;;;;7.00;3.30;;;9.30;99.90;;;;;;5008136;28;20046;-67
2024/03/26 04:48:52;;;;;;;4.65;2.90;;;9.30;99.90;;;;;;5003935;28;20046;-67
2024/03/26 04:51:18;;;;;;;17.27;4.50;;;9.30;99.90;;;;;;5006232;28;20508;-68
2024/03/26 04:53:44;;;;;;;9.02;2.90;;;9.30;99.90;;;;;;5008737;28;20092;-68
2024/03/26 04:56:10;;;;;;;11.43;3.58;;;9.30;99.90;;;;;;5005287;28;20045;-67
2024/03/26 04:58:36;;;;;;;7.45;4.75;;;9.20;99.90;;;;;;5008772;28;20065;-68
2024/03/26 05:01:03;;;;;;;9.00;3.80;;;9.20;99.90;;;;;;5008658;28;20119;-68
2024/03/26 05:03:29;;;;;;;8.88;3.25;;;9.20;99.90;;;;;;5007968;28;20061;-68
2024/03/26 05:05:54;;;;;;;6.07;3.65;;;9.30;99.90;;;;;;5004410;28;20513;-68
2024/03/26 05:08:20;;;;;;;10.30;4.03;;;9.20;99.90;;;;;;5007196;28;20050;-68
2024/03/26 05:10:46;;;;;;;6.28;2.90;;;9.20;99.90;;;;;;5005108;28;20064;-68
2024/03/26 05:13:13;;;;;;;8.25;3.60;;;9.20;99.90;;;;;;5005991;28;20703;-68
2024/03/26 05:15:39;;;;;;;8.93;3.22;;;9.20;99.90;;;;;;4988246;28;20100;-68
2024/03/26 05:18:05;;;;;;;8.82;2.90;;;9.20;99.90;;;;;;5006167;28;20478;-69
2024/03/26 05:20:31;;;;;;;10.02;2.97;;;9.20;99.90;;;;;;5004261;28;20054;-68
2024/03/26 05:22:56;;;;;;;6.60;3.25;;;9.20;99.90;;;;;;5004512;28;20049;-68
2024/03/26 05:25:22;;;;;;;8.85;4.25;;;9.20;99.90;;;;;;4987198;28;20100;-68
2024/03/26 05:27:48;;;;;;;6.13;2.80;;;9.20;99.90;;;;;;5005480;28;20432;-67
2024/03/26 05:30:14;;;;;;;11.43;3.72;;;9.20;99.90;;;;;;5004617;28;20061;-67
2024/03/26 05:32:40;;;;;;;8.35;3.10;;;9.20;99.90;;;;;;4998841;28;20056;-68
2024/03/26 05:35:07;;;;;;;12.25;3.03;;;9.20;99.90;;;;;;5004703;28;20056;-67
2024/03/26 05:37:32;;;;;;;6.25;2.58;;;9.20;99.90;;;;;;5006277;28;20485;-67
2024/03/26 05:39:58;;;;;;;11.90;4.00;;;9.10;99.90;;;;;;5001673;28;20096;-68
2024/03/26 05:42:24;;;;;;;9.43;3.00;;;9.10;99.90;;;;;;5022261;28;20457;-69
2024/03/26 05:44:50;;;;;;;9.73;3.17;;;9.10;99.90;;;;;;5004104;28;20064;-69
2024/03/26 05:47:17;;;;;;;8.23;3.05;;;9.20;99.90;;;;;;5019134;28;20457;-69
2024/03/26 05:49:42;;;;;;;11.18;2.72;;;9.20;99.90;;;;;;5005087;28;20053;-69
2024/03/26 05:52:08;;;;;;;4.57;2.65;;;9.20;99.90;;;;;;5006633;28;20046;-69
2024/03/26 05:54:34;;;;;;;5.63;2.67;;;9.10;99.90;;;;;;5002030;28;20050;-70
2024/03/26 05:57:00;;;;;;;14.18;4.82;;;9.10;99.90;;;;;;5004988;28;20558;-69
2024/03/26 05:59:26;;;;;;;12.52;3.47;;;9.10;99.90;;;;;;5004553;28;20046;-69
2024/03/26 06:01:53;;;;;;;9.30;3.10;;;9.10;99.90;;;;;;5004022;28;20509;-69
2024/03/26 06:04:19;;;;;;;7.22;3.50;;;9.00;99.90;;;;;;5005569;28;20042;-69
2024/03/26 06:06:45;;;;;;;8.00;3.47;;;9.00;99.90;;;;;;5002512;28;20064;-69
2024/03/26 06:09:11;;;;;;;9.60;3.00;;;9.00;99.90;;;;;;5006041;28;20053;-69
2024/03/26 06:11:37;;;;;;;8.35;3.00;;;9.00;99.90;;;;;;5005019;28;20046;-69
2024/03/26 06:14:03;;;;;;;7.32;3.03;;;9.00;99.90;;;;;;5004477;28;20092;-68
2024/03/26 06:16:29;;;;;;;6.70;3.28;;;9.00;99.90;;;;;;5003133;28;20179;-69
2024/03/26 06:18:55;;;;;;;10.93;3.58;;;9.10;99.90;;;;;;5005441;28;20046;-69
2024/03/26 06:21:21;;;;;;;12.10;3.75;;;9.10;99.90;;;;;;5005982;28;20050;-69
2024/03/26 06:23:46;;;;;;;8.25;3.72;;;9.10;99.90;;;;;;5004308;28;20084;-69
2024/03/26 06:26:12;;;;;;;8.38;3.47;;;9.10;99.90;;;;;;4994804;28;20042;-69
2024/03/26 06:28:38;;;;;;;7.00;2.92;;;9.10;99.90;;;;;;5009235;28;20519;-68
2024/03/26 06:31:04;;;;;;;9.32;3.60;;;9.10;99.90;;;;;;5003730;28;20457;-68
2024/03/26 06:33:30;;;;;;;15.13;3.85;;;9.10;99.90;;;;;;4991736;28;20054;-70
2024/03/26 06:35:56;;;;;;;9.63;3.72;;;9.10;99.90;;;;;;5010361;28;20080;-66
2024/03/26 06:38:21;;;;;;;17.25;4.47;;;9.00;99.90;;;;;;5009391;28;20383;-69
2024/03/26 06:40:48;;;;;;;15.38;4.63;;;9.00;99.90;;;;;;5007994;28;20386;-69
2024/03/26 06:43:13;;;;;;;16.52;5.75;;;9.10;99.90;;;;;;5009537;28;20497;-69
2024/03/26 06:45:39;;;;;;;11.20;3.88;;;9.10;99.90;;;;;;4990501;28;20042;-69
2024/03/26 06:48:05;;;;;;;7.85;3.50;;;9.10;99.90;;;;;;5026253;28;20062;-68
2024/03/26 06:50:31;;;;;;;14.60;3.38;;;9.10;99.90;;;;;;5020315;28;20065;-69
2024/03/26 06:52:59;;;;;;;10.60;3.75;;;9.20;99.90;;;;;;5023016;28;20042;-69
2024/03/26 06:55:25;;;;;;;7.30;3.28;;;9.20;99.90;;;;;;5008916;28;20050;-68
2024/03/26 06:57:51;;;;;;;12.30;4.45;;;9.20;99.90;;;;;;5016618;28;20065;-68
2024/03/26 07:00:18;;;;;;;16.60;4.35;;;9.20;99.90;;;;;;4990600;28;20054;-68
2024/03/26 07:02:44;;;;;;;16.08;3.70;;;9.30;99.90;;;;;;5008554;28;20052;-70
2024/03/26 07:05:12;;;;;;;13.93;3.90;;;9.30;99.90;;;;;;4993632;28;20046;-68
2024/03/26 07:07:39;;;;;;;10.95;4.07;;;9.30;99.90;;;;;;5009711;28;20050;-68
2024/03/26 07:10:06;;;;;;;12.13;4.28;;;9.40;99.90;;;;;;5022577;28;20041;-68
2024/03/26 07:12:32;;;;;;;11.93;4.72;;;9.40;99.90;;;;;;5005700;28;20057;-68
2024/03/26 07:14:58;;;;;;;8.00;4.15;;;9.40;99.90;;;;;;5008972;28;20413;-68
2024/03/26 07:17:24;;;;;;;17.85;4.97;;;9.40;99.90;;;;;;5002499;28;20061;-68
2024/03/26 07:19:50;;;;;;;22.38;4.85;;;9.40;99.90;;;;;;5019369;28;20513;-68
2024/03/26 07:22:16;;;;;;;19.55;4.25;;;9.40;99.90;;;;;;4985460;28;20057;-62
2024/03/26 07:24:42;;;;;;;11.85;4.72;;;9.40;99.90;;;;;;5004341;28;20057;-69
2024/03/26 07:27:11;;;;;;;12.82;4.47;;;9.50;99.90;;;;;;5016386;28;20123;-69
2024/03/26 07:29:40;;;;;;;12.23;5.13;;;9.50;99.90;;;;;;5003638;28;20060;-69
2024/03/26 07:32:06;;;;;;;20.48;4.97;;;9.60;99.90;;;;;;4991858;28;20038;-69
2024/03/26 07:34:34;;;;;;;16.77;4.65;;;9.60;99.90;;;;;;4990052;28;20103;-70
2024/03/26 07:37:01;;;;;;;16.55;4.50;;;9.70;99.90;;;;;;5007941;28;20089;-69
2024/03/26 07:39:27;;;;;;;13.60;5.30;;;9.70;99.90;;;;;;5000854;28;20521;-69
2024/03/26 07:41:53;;;;;;;13.18;4.78;;;9.70;99.90;;;;;;5001520;28;20054;-68
2024/03/26 07:44:19;;;;;;;14.02;5.40;;;9.80;99.90;;;;;;5017514;28;20594;-69
2024/03/26 07:46:45;;;;;;;16.42;5.35;;;9.80;99.90;;;;;;4999223;28;20057;-68
2024/03/26 07:49:11;;;;;;;14.93;5.18;;;9.90;99.90;;;;;;4990706;28;20133;-69
2024/03/26 07:51:40;;;;;;;21.65;4.97;;;9.90;99.90;;;;;;4999045;28;20058;-67
2024/03/26 07:54:06;;;;;;;14.65;4.30;;;10.00;99.90;;;;;;4994706;28;20049;-68
2024/03/26 07:56:32;;;;;;;15.80;5.45;;;10.00;99.90;;;;;;5007835;28;20046;-68
2024/03/26 07:58:59;;;;;;;19.33;6.05;;;10.00;99.90;;;;;;5022575;28;20049;-70
2024/03/26 08:01:24;;;;;;;11.80;5.18;;;10.10;99.90;;;;;;5001830;28;20061;-68
2024/03/26 08:03:51;;;;;;;15.75;5.55;;;10.10;99.90;;;;;;5003679;28;20046;-67
2024/03/26 08:06:16;;;;;;;19.10;4.53;;;10.10;99.90;;;;;;5010215;28;20049;-67
2024/03/26 08:08:45;;;;;;;18.90;5.28;;;10.10;99.90;;;;;;5005810;28;20046;-67
2024/03/26 08:11:14;;;;;;;27.98;6.18;;;10.20;99.90;;;;;;5005513;28;20127;-68
2024/03/26 08:13:40;;;;;;;23.63;4.70;;;10.30;99.90;;;;;;5007534;28;20057;-68
2024/03/26 08:16:07;;;;;;;30.63;5.18;;;10.40;99.90;;;;;;4990268;28;20107;-67
2024/03/26 08:18:33;;;;;;;29.00;6.03;;;10.40;99.90;;;;;;5005864;28;20046;-62
2024/03/26 08:21:00;;;;;;;13.88;5.07;;;10.50;99.90;;;;;;5005864;28;20061;-70
2024/03/26 08:23:26;;;;;;;17.80;4.90;;;10.50;99.90;;;;;;5006554;28;20058;-68
2024/03/26 08:25:52;;;;;;;10.98;3.95;;;10.50;99.90;;;;;;4986614;28;20065;-68
2024/03/26 08:28:18;;;;;;;8.57;4.50;;;10.60;99.90;;;;;;5007664;28;20096;-68
2024/03/26 08:30:44;;;;;;;8.75;3.42;;;10.70;99.90;;;;;;5018469;28;20046;-68
2024/03/26 08:33:10;;;;;;;13.57;4.20;;;10.80;99.90;;;;;;4991955;28;20169;-68
2024/03/26 08:35:40;;;;;;;19.50;4.40;;;10.80;99.90;;;;;;5008555;28;20448;-70
2024/03/26 08:38:06;;;;;;;14.02;4.45;;;10.80;99.90;;;;;;5004394;28;20049;-72
2024/03/26 08:40:32;;;;;;;13.23;4.20;;;10.80;99.90;;;;;;5006367;28;20104;-70
2024/03/26 08:42:58;;;;;;;8.30;3.20;;;10.80;99.90;;;;;;5004761;28;20054;-69
2024/03/26 08:45:24;;;;;;;9.07;3.22;;;10.80;99.90;;;;;;5005606;28;20557;-69
2024/03/26 08:47:51;;;;;;;8.93;3.60;;;10.80;99.90;;;;;;5004437;28;20524;-68
2024/03/26 08:50:17;;;;;;;6.80;4.00;;;10.80;99.90;;;;;;4974858;28;20050;-67
2024/03/26 08:52:43;;;;;;;14.10;4.18;;;10.90;99.90;;;;;;5000935;28;20061;-68
2024/03/26 08:55:09;;;;;;;13.32;4.47;;;10.90;99.90;;;;;;5005485;28;20061;-68
2024/03/26 08:57:35;;;;;;;9.35;3.97;;;10.90;99.90;;;;;;5003505;28;20076;-67
2024/03/26 09:00:03;;;;;;;8.57;3.63;;;10.90;99.90;;;;;;5002377;28;20049;-68
2024/03/26 09:02:29;;;;;;;10.82;3.50;;;10.90;99.90;;;;;;5002326;28;20485;-68
2024/03/26 09:04:55;;;;;;;7.25;2.88;;;11.00;99.90;;;;;;5001596;28;20404;-69
2024/03/26 09:07:21;;;;;;;9.55;3.40;;;11.10;99.90;;;;;;5018177;28;20066;-70
2024/03/26 09:09:47;;;;;;;11.40;4.13;;;11.10;99.90;;;;;;4997219;28;20053;-66
2024/03/26 09:12:13;;;;;;;10.52;3.55;;;11.20;99.90;;;;;;5000363;28;20050;-68
2024/03/26 09:14:38;;;;;;;14.80;3.78;;;11.30;99.90;;;;;;4994873;28;20120;-69
2024/03/26 09:17:04;;;;;;;8.00;3.28;;;11.30;99.90;;;;;;5000331;28;20037;-69
2024/03/26 09:19:30;;;;;;;8.98;3.60;;;11.50;99.90;;;;;;4985419;28;20318;-68
2024/03/26 09:21:56;;;;;;;9.05;3.67;;;11.60;99.90;;;;;;4993403;28;20125;-68
2024/03/26 09:24:22;;;;;;;12.95;3.58;;;11.70;99.90;;;;;;5013146;28;20232;-67
2024/03/26 09:26:48;;;;;;;6.03;2.83;;;11.90;99.90;;;;;;4992848;28;20049;-68
2024/03/26 09:29:14;;;;;;;5.50;3.38;;;12.10;99.90;;;;;;4986604;28;20107;-67
2024/03/26 09:31:40;;;;;;;7.53;3.33;;;12.40;99.90;;;;;;5004843;28;20501;-67
2024/03/26 09:34:06;;;;;;;9.65;3.83;;;12.70;99.90;;;;;;4999559;28;20798;-66
2024/03/26 09:36:32;;;;;;;14.60;3.38;;;12.90;99.90;;;;;;5006253;28;20049;-66
2024/03/26 09:38:59;;;;;;;9.48;4.10;;;13.00;99.90;;;;;;5001919;28;20521;-66
2024/03/26 09:41:27;;;;;;;6.10;3.35;;;13.00;99.90;;;;;;5005834;28;20053;-67
2024/03/26 09:43:53;;;;;;;8.70;3.65;;;13.10;99.90;;;;;;5000835;28;20046;-65
2024/03/26 09:46:19;;;;;;;15.18;4.10;;;13.20;99.90;;;;;;5005089;28;20161;-66
2024/03/26 09:48:46;;;;;;;8.43;3.42;;;13.40;99.90;;;;;;4985229;28;20064;-66
2024/03/26 09:51:13;;;;;;;13.75;3.97;;;13.50;99.90;;;;;;4991007;28;20058;-66
2024/03/26 09:53:40;;;;;;;9.40;4.07;;;13.50;99.90;;;;;;4989638;28;20048;-67
2024/03/26 09:56:06;;;;;;;5.65;2.75;;;13.70;99.90;;;;;;5002894;28;20482;-67
2024/03/26 09:58:32;;;;;;;7.78;3.00;;;13.60;99.90;;;;;;5009370;28;20136;-66
2024/03/26 10:00:58;;;;;;;4.82;2.90;;;13.50;99.90;;;;;;4987036;28;20085;-67
2024/03/26 10:03:25;;;;;;;8.27;2.85;;;13.50;99.90;;;;;;5004747;28;20046;-67
2024/03/26 10:05:50;;;;;;;8.68;3.53;;;13.50;99.90;;;;;;5001760;28;20042;-67
2024/03/26 10:08:17;;;;;;;9.32;3.45;;;13.40;99.90;;;;;;5016357;28;20104;-67
2024/03/26 10:10:42;;;;;;;6.30;3.38;;;13.40;99.90;;;;;;5004370;28;20054;-67
2024/03/26 10:13:10;;;;;;;14.23;3.45;;;13.30;99.90;;;;;;5005054;28;20051;-67
2024/03/26 10:15:39;;;;;;;14.05;4.30;;;13.30;99.90;;;;;;5002335;28;20049;-67
2024/03/26 10:18:06;;;;;;;10.13;3.20;;;13.30;99.90;;;;;;5004791;28;20054;-67
2024/03/26 10:20:32;;;;;;;10.95;3.33;;;13.30;99.90;;;;;;5006590;28;20053;-66
2024/03/26 10:23:01;;;;;;;10.70;3.30;;;13.40;99.90;;;;;;5004688;28;20466;-66
2024/03/26 10:25:27;;;;;;;6.75;3.38;;;13.30;99.90;;;;;;5006566;28;20400;-66
2024/03/26 10:27:55;;;;;;;4.45;2.50;;;13.30;99.90;;;;;;5006397;28;20045;-67
2024/03/26 10:30:21;;;;;;;11.27;4.38;;;13.20;99.90;;;;;;5015552;28;20054;-66
2024/03/26 10:32:48;;;;;;;13.27;2.85;;;13.30;99.90;;;;;;5011891;28;20096;-66
2024/03/26 10:35:14;;;;;;;15.57;2.83;;;13.30;99.90;;;;;;5009517;28;20046;-66
2024/03/26 10:37:40;;;;;;;6.22;3.03;;;13.40;99.90;;;;;;5010229;28;20508;-66
2024/03/26 10:40:08;;;;;;;8.43;2.78;;;13.40;99.90;;;;;;5008548;28;20057;-67
2024/03/26 10:42:39;;;;;;;9.77;4.30;;;13.40;99.90;;;;;;5009309;28;20049;-67
2024/03/26 10:45:05;;;;;;;4.80;2.42;;;13.50;99.90;;;;;;4992727;28;20049;-66
2024/03/26 10:47:32;;;;;;;10.57;2.88;;;13.50;99.90;;;;;;5011237;28;20064;-67
2024/03/26 10:49:59;;;;;;;8.55;3.00;;;13.60;99.90;;;;;;4986834;28;20046;-67
2024/03/26 10:52:25;;;;;;;11.60;3.50;;;13.70;99.90;;;;;;4992826;28;20069;-67
2024/03/26 10:54:51;;;;;;;4.90;2.78;;;13.80;99.90;;;;;;5021686;28;20053;-67
2024/03/26 10:57:17;;;;;;;9.30;3.28;;;13.90;99.90;;;;;;4993153;28;20061;-68
2024/03/26 10:59:42;;;;;;;11.18;4.60;;;13.90;99.90;;;;;;4990997;28;20397;-67
2024/03/26 11:02:08;;;;;;;12.07;3.83;;;14.00;99.90;;;;;;4995943;28;20497;-67
2024/03/26 11:04:34;;;;;;;8.65;2.80;;;14.00;99.90;;;;;;4992395;28;20060;-67
2024/03/26 11:07:00;;;;;;;7.60;3.00;;;14.00;99.90;;;;;;4992520;28;20061;-67
2024/03/26 11:09:26;;;;;;;6.13;3.20;;;14.10;99.90;;;;;;5009887;28;20073;-66
2024/03/26 11:11:52;;;;;;;11.13;3.53;;;14.20;99.90;;;;;;5008232;28;20107;-66
2024/03/26 11:14:18;;;;;;;7.55;2.97;;;14.30;99.90;;;;;;5008991;28;20042;-67
2024/03/26 11:16:44;;;;;;;10.07;3.28;;;14.30;99.90;;;;;;5019265;28;20037;-66
2024/03/26 11:19:19;;;;;;;8.65;3.42;;;14.30;99.90;;;;;;5013562;28;20108;-66
2024/03/26 11:21:47;;;;;;;12.63;4.07;;;14.40;99.90;;;;;;5012297;28;20057;-67
2024/03/26 11:24:40;;;;;;;8.70;3.15;;;14.40;99.90;;;;;;5008647;28;20061;-66
2024/03/26 11:27:06;;;;;;;7.70;2.72;;;14.50;99.90;;;;;;5008576;28;20053;-66
2024/03/26 11:29:32;;;;;;;13.45;4.15;;;14.50;99.90;;;;;;4991379;28;20134;-66
2024/03/26 11:32:01;;;;;;;7.07;3.50;;;14.50;99.90;;;;;;5006426;28;20042;-67
2024/03/26 11:34:29;;;;;;;10.38;3.85;;;14.50;99.90;;;;;;5018069;28;20054;-67
2024/03/26 11:36:56;;;;;;;9.98;4.03;;;14.60;99.90;;;;;;5007097;28;20046;-66
2024/03/26 11:39:23;;;;;;;7.40;3.25;;;14.60;99.90;;;;;;5007221;28;20773;-66
2024/03/26 11:41:52;;;;;;;8.95;3.35;;;14.60;99.90;;;;;;5007257;28;20390;-67
2024/03/26 11:44:18;;;;;;;6.35;2.67;;;14.60;99.90;;;;;;5003445;28;20532;-66
2024/03/26 11:46:45;;;;;;;5.63;3.80;;;14.70;99.90;;;;;;5008187;28;20054;-66
2024/03/26 11:49:11;;;;;;;8.20;3.38;;;14.80;99.90;;;;;;5004282;28;20065;-67
2024/03/26 11:51:37;;;;;;;11.25;4.30;;;14.90;99.90;;;;;;5005976;28;20860;-66
2024/03/26 11:54:03;;;;;;;10.13;3.22;;;14.90;99.90;;;;;;5008160;28;20060;-66
2024/03/26 11:56:29;;;;;;;13.38;3.70;;;14.90;99.90;;;;;;5006642;28;20057;-65
2024/03/26 11:58:55;;;;;;;7.40;3.75;;;14.90;99.90;;;;;;5000031;28;20045;-66
2024/03/26 12:01:21;;;;;;;8.13;3.63;;;14.90;99.90;;;;;;5006319;28;20046;-66
2024/03/26 12:04:05;;;;;;;6.57;3.47;;;15.00;99.90;;;;;;5022404;28;20344;-67
2024/03/26 12:06:31;;;;;;;9.05;3.47;;;15.00;99.90;;;;;;4991166;28;20053;-66
2024/03/26 12:08:58;;;;;;;5.47;2.97;;;15.10;99.90;;;;;;5007209;28;20049;-66
2024/03/26 12:11:24;;;;;;;5.82;3.03;;;15.00;99.90;;;;;;4991117;28;20064;-66
2024/03/26 12:13:50;;;;;;;6.65;2.90;;;15.00;99.90;;;;;;5008032;28;20046;-66
2024/03/26 12:16:26;;;;;;;8.50;2.63;;;15.10;99.90;;;;;;5006766;28;20054;-66
2024/03/26 12:18:53;;;;;;;7.65;4.13;;;15.00;99.90;;;;;;4991634;28;20045;-66
2024/03/26 12:21:19;;;;;;;11.25;2.42;;;15.10;99.90;;;;;;4989347;28;20061;-65
2024/03/26 12:23:52;;;;;;;9.38;2.60;;;15.10;99.90;;;;;;4992502;28;20050;-66
2024/03/26 12:26:21;;;;;;;6.57;2.03;;;15.10;99.90;;;;;;4988528;28;20496;-67
2024/03/26 12:28:48;;;;;;;8.70;2.70;;;15.10;99.90;;;;;;5008499;28;20374;-66
2024/03/26 12:31:17;;;;;;;8.90;2.70;;;15.20;99.90;;;;;;5008999;28;20050;-65
2024/03/26 12:33:43;;;;;;;20.17;4.05;;;15.30;99.90;;;;;;5002487;28;20050;-68
2024/03/26 12:36:09;;;;;;;7.82;2.00;;;15.40;99.90;;;;;;5009439;28;20064;-68
2024/03/26 12:38:39;;;;;;;6.45;1.73;;;15.40;99.90;;;;;;5007072;28;20049;-67
2024/03/26 12:41:05;;;;;;;12.38;2.60;;;15.50;99.90;;;;;;4984271;28;20072;-66
2024/03/26 12:43:33;;;;;;;10.15;3.58;;;15.50;99.90;;;;;;5002401;28;20108;-63
2024/03/26 12:45:59;;;;;;;5.15;2.60;;;15.50;99.90;;;;;;5005761;28;20076;-66